Time;durP1;ratioP1;P1;durP2;ratioP2;P2;SDS_P1;SDS_P2;PMS_P1;PMS_P2;Temp;Humidity;BMP_temperature;BMP_pressure;BME280_temperature;BME280_humidity;BME280_pressure;Samples;Min_cycle;Max_cycle;Signal;HPM_P1;HPM_P2
2022/12/24 00:01:53;;;;;;;50.47;24.98;;;;;;;-1.77;82.86;93276.41;5081001;28;20419;-35
2022/12/24 00:04:18;;;;;;;50.92;23.30;;;;;;;-1.72;81.94;93283.84;5082333;28;20023;-35
2022/12/24 00:06:44;;;;;;;41.80;19.83;;;;;;;-1.68;81.61;93289.81;5075516;28;20467;-35
2022/12/24 00:09:09;;;;;;;39.78;20.27;;;;;;;-2.07;81.41;93239.88;5078765;28;20024;-35
2022/12/24 00:11:35;;;;;;;39.50;21.42;;;;;;;-1.71;81.73;93279.91;5086937;28;20032;-35
2022/12/24 00:14:00;;;;;;;42.33;20.30;;;;;;;-1.76;81.64;93280.63;5075658;28;20016;-34
2022/12/24 00:16:26;;;;;;;37.00;19.08;;;;;;;-1.70;81.58;93286.09;5078159;28;20031;-35
2022/12/24 00:18:51;;;;;;;41.28;20.83;;;;;;;-1.88;82.26;93278.22;5080454;28;20032;-35
2022/12/24 00:21:17;;;;;;;37.30;19.45;;;;;;;-1.73;81.88;93279.66;5065172;28;20023;-35
2022/12/24 00:23:43;;;;;;;45.33;18.30;;;;;;;-1.96;82.79;93266.31;5061572;28;20044;-34
2022/12/24 00:26:08;;;;;;;40.17;19.75;;;;;;;-1.97;83.48;93273.69;5062133;28;20055;-35
2022/12/24 00:28:33;;;;;;;52.63;23.95;;;;;;;-2.13;84.17;93274.22;5077562;28;20389;-35
2022/12/24 00:30:59;;;;;;;47.42;23.92;;;;;;;-2.10;84.69;93272.53;5074185;28;20035;-34
2022/12/24 00:33:24;;;;;;;40.72;23.33;;;;;;;-2.12;84.63;93256.03;5076381;28;20035;-35
2022/12/24 00:35:51;;;;;;;37.50;19.00;;;;;;;-2.11;85.08;93277.22;5079420;28;20016;-35
2022/12/24 00:38:16;;;;;;;38.13;18.20;;;;;;;-2.07;84.69;93283.16;5083117;28;20039;-35
2022/12/24 00:40:42;;;;;;;42.80;19.95;;;;;;;-2.04;84.67;93262.53;5081200;28;20412;-35
2022/12/24 00:43:07;;;;;;;42.20;20.05;;;;;;;-2.02;83.99;93270.94;5059668;28;20032;-35
2022/12/24 00:45:33;;;;;;;32.50;17.10;;;;;;;-2.06;83.80;93271.13;5080436;28;20458;-35
2022/12/24 00:47:58;;;;;;;40.50;20.63;;;;;;;-2.05;82.85;93274.56;5080521;28;20040;-35
2022/12/24 00:50:24;;;;;;;35.03;18.38;;;;;;;-2.05;83.26;93261.78;5078642;28;20039;-35
2022/12/24 00:52:49;;;;;;;42.47;20.85;;;;;;;-2.03;82.66;93264.00;5082513;28;20050;-35
2022/12/24 00:55:15;;;;;;;45.15;20.55;;;;;;;-2.07;82.74;93258.81;5058200;28;20400;-35
2022/12/24 00:57:40;;;;;;;56.10;29.77;;;;;;;-1.97;82.84;93265.56;5077228;28;20411;-35
2022/12/24 01:00:07;;;;;;;59.17;29.58;;;;;;;-1.95;82.71;93268.53;5070063;28;20036;-35
2022/12/24 01:02:32;;;;;;;48.75;25.48;;;;;;;-1.95;82.36;93267.81;5077791;28;20039;-35
2022/12/24 01:05:10;;;;;;;57.63;27.80;;;;;;;-2.17;82.27;93267.53;5083120;28;20028;-35
2022/12/24 01:07:37;;;;;;;53.50;23.05;;;;;;;-2.34;82.63;93275.41;5079585;28;20059;-35
2022/12/24 01:10:03;;;;;;;39.28;18.65;;;;;;;-2.38;82.51;93274.84;5077328;28;20061;-35
2022/12/24 01:12:29;;;;;;;44.17;16.70;;;;;;;-2.36;82.23;93277.84;5083838;28;20031;-35
2022/12/24 01:14:54;;;;;;;33.83;17.75;;;;;;;-2.40;82.31;93278.03;5080094;28;20042;-35
2022/12/24 01:17:20;;;;;;;52.17;20.33;;;;;;;-2.37;82.68;93273.63;5083552;28;20082;-35
2022/12/24 01:19:45;;;;;;;86.22;27.88;;;;;;;-2.28;82.84;93270.06;5080848;28;20024;-35
2022/12/24 01:22:11;;;;;;;104.03;42.17;;;;;;;-2.20;82.77;93266.50;5078236;28;20027;-34
2022/12/24 01:24:36;;;;;;;68.13;32.35;;;;;;;-2.26;83.09;93270.34;5075931;28;20027;-36
2022/12/24 01:27:02;;;;;;;67.47;31.67;;;;;;;-2.16;82.91;93269.75;5076904;28;20042;-35
2022/12/24 01:29:27;;;;;;;49.28;24.00;;;;;;;-2.28;82.28;93243.03;5085142;28;20016;-35
2022/12/24 01:31:53;;;;;;;48.67;24.52;;;;;;;-2.18;81.74;93260.63;5061540;28;20033;-35
2022/12/24 01:34:18;;;;;;;51.22;24.75;;;;;;;-2.31;82.37;93269.06;5081696;28;20020;-35
2022/12/24 01:36:44;;;;;;;34.38;20.25;;;;;;;-2.53;83.29;93268.72;5077663;28;20024;-36
2022/12/24 01:39:09;;;;;;;40.75;16.23;;;;;;;-2.66;83.81;93243.97;5079003;28;20031;-35
2022/12/24 01:44:22;;;;;;;30.73;16.25;;;;;;;-2.43;83.82;93259.31;5081569;28;20085;-35
2022/12/24 01:46:52;;;;;;;37.25;19.25;;;;;;;-2.30;83.92;93257.03;5083236;28;20070;-35
2022/12/24 01:49:17;;;;;;;36.22;19.40;;;;;;;-2.19;83.54;93259.16;5079020;28;20053;-35
2022/12/24 01:51:50;;;;;;;58.58;18.05;;;;;;;-2.17;84.31;93252.06;5079645;28;20411;-35
2022/12/24 01:54:36;;;;;;;39.72;19.73;;;;;;;-2.20;84.28;93252.97;5084595;28;20028;-35
2022/12/24 01:57:13;;;;;;;47.13;19.58;;;;;;;-2.20;84.78;93261.09;5070074;28;20067;-35
2022/12/24 01:59:40;;;;;;;51.83;18.80;;;;;;;-2.30;85.13;93262.44;5066522;28;20540;-35
2022/12/24 02:02:06;;;;;;;65.50;20.13;;;;;;;-2.30;85.65;93259.75;5070659;28;20192;-35
2022/12/24 02:04:46;;;;;;;67.28;17.90;;;;;;;-2.23;85.79;93262.03;5082687;28;20569;-36
2022/12/24 02:07:11;;;;;;;46.58;18.58;;;;;;;-2.20;85.65;93261.09;5058835;28;20097;-35
2022/12/24 02:09:38;;;;;;;48.97;18.70;;;;;;;-2.09;85.23;93269.34;5081340;28;20032;-35
2022/12/24 02:12:04;;;;;;;44.45;20.52;;;;;;;-2.10;85.38;93261.72;5079919;28;20020;-35
2022/12/24 02:14:31;;;;;;;45.85;19.83;;;;;;;-2.02;85.16;93252.00;5078593;28;20175;-35
2022/12/24 02:17:16;;;;;;;48.25;19.98;;;;;;;-1.99;85.10;93246.38;5079243;28;20527;-35
2022/12/24 02:20:15;;;;;;;55.13;22.73;;;;;;;-2.09;85.26;93246.97;5062779;28;20531;-35
2022/12/24 02:23:02;;;;;;;61.38;25.48;;;;;;;-2.13;85.18;93235.63;5087832;28;20137;-35
2022/12/24 02:26:24;;;;;;;64.72;27.10;;;;;;;-2.12;85.11;93243.25;5083192;28;20020;-35
2022/12/24 02:28:58;;;;;;;52.50;22.45;;;;;;;-2.07;85.47;93252.66;4984186;28;20032;-35
2022/12/24 02:31:42;;;;;;;56.80;20.10;;;;;;;-1.97;85.42;93248.63;4981906;28;20800;-35
2022/12/24 02:34:14;;;;;;;56.88;24.17;;;;;;;-1.94;84.98;93259.22;5060543;28;20496;-35
2022/12/24 02:36:43;;;;;;;66.70;23.40;;;;;;;-2.18;85.59;93264.06;5077756;28;20028;-35
2022/12/24 02:39:11;;;;;;;59.00;23.52;;;;;;;-2.27;86.04;93261.47;5057458;28;20035;-34
2022/12/24 02:42:06;;;;;;;41.70;20.25;;;;;;;-2.41;86.13;93246.06;5065852;28;20161;-35
2022/12/24 02:45:08;;;;;;;40.70;17.80;;;;;;;-2.39;86.66;93246.34;5070804;28;20031;-35
2022/12/24 02:47:34;;;;;;;62.92;19.55;;;;;;;-2.32;86.91;93245.94;5007389;28;20040;-35
2022/12/24 02:50:01;;;;;;;53.28;20.45;;;;;;;-2.14;86.59;93248.38;5060170;28;20032;-35
2022/12/24 02:52:27;;;;;;;36.55;19.27;;;;;;;-2.12;85.84;93248.66;5082312;28;20032;-34
2022/12/24 02:54:53;;;;;;;38.38;16.70;;;;;;;-2.19;85.79;93248.31;5081838;28;20074;-34
2022/12/24 02:57:27;;;;;;;52.95;19.90;;;;;;;-2.14;86.24;93256.50;5077474;28;20023;-35
2022/12/24 03:00:07;;;;;;;66.95;21.08;;;;;;;-2.15;86.81;93256.97;5060254;28;20117;-35
2022/12/24 03:02:38;;;;;;;49.22;21.75;;;;;;;-2.10;86.94;93250.91;5079754;28;20120;-35
2022/12/24 03:05:33;;;;;;;40.28;17.02;;;;;;;-2.06;86.69;93248.75;5078369;28;20025;-35
2022/12/24 03:07:58;;;;;;;33.63;17.92;;;;;;;-2.19;86.52;93242.91;5079725;28;20170;-35
2022/12/24 03:10:42;;;;;;;36.53;17.65;;;;;;;-2.41;86.86;93232.56;5083933;28;20107;-35
2022/12/24 03:13:15;;;;;;;43.97;15.23;;;;;;;-2.31;87.02;93240.06;5063731;28;20032;-35
2022/12/24 03:15:42;;;;;;;34.45;14.38;;;;;;;-2.34;87.42;93245.69;5088382;28;20032;-35
2022/12/24 03:18:09;;;;;;;45.42;16.20;;;;;;;-2.31;87.32;93247.41;5063797;28;20459;-35
2022/12/24 03:20:44;;;;;;;43.55;17.02;;;;;;;-2.45;87.25;93243.53;5064587;28;20518;-35
2022/12/24 03:23:10;;;;;;;34.63;15.30;;;;;;;-2.44;87.37;93238.88;5064180;28;20078;-35
2022/12/24 03:25:39;;;;;;;49.58;15.93;;;;;;;-2.60;87.45;93234.72;5063542;28;20028;-35
2022/12/24 03:28:06;;;;;;;;;;;;;;;-2.45;87.60;93238.13;5076563;28;20469;-35
2022/12/24 03:30:32;;;;;;;36.90;15.60;;;;;;;-2.41;87.48;93244.13;5066689;28;19938;-35
2022/12/24 03:32:58;;;;;;;28.77;14.35;;;;;;;-2.34;87.11;93243.69;5082573;28;20732;-35
2022/12/24 03:35:24;;;;;;;23.80;12.10;;;;;;;-2.57;86.82;93235.75;5078086;28;20023;-35
2022/12/24 03:37:50;;;;;;;26.05;13.27;;;;;;;-2.50;87.43;93238.06;5079983;28;20028;-35
2022/12/24 03:40:15;;;;;;;33.67;11.25;;;;;;;-2.42;88.04;93245.31;5087868;28;20654;-35
2022/12/24 03:42:41;;;;;;;42.95;12.80;;;;;;;-2.45;87.53;93204.97;5080828;28;20031;-35
2022/12/24 03:45:07;;;;;;;52.95;12.80;;;;;;;-2.42;87.11;93220.97;5078327;28;20020;-35
2022/12/24 03:47:32;;;;;;;38.20;12.90;;;;;;;-2.22;87.00;93224.91;5082840;28;20028;-35
2022/12/24 03:49:58;;;;;;;46.33;11.70;;;;;;;-2.15;87.10;93235.34;5081012;28;20460;-35
2022/12/24 03:52:23;;;;;;;64.60;14.60;;;;;;;-2.07;87.08;93241.84;5075036;28;20035;-35
2022/12/24 03:54:49;;;;;;;77.28;16.92;;;;;;;-1.98;87.30;93239.00;5080551;28;20031;-35
2022/12/24 03:57:14;;;;;;;37.40;12.07;;;;;;;-1.90;87.25;93240.81;5084165;28;20102;-35
2022/12/24 03:59:40;;;;;;;48.60;11.90;;;;;;;-1.92;87.57;93237.09;5076106;28;20074;-35
2022/12/24 04:02:05;;;;;;;28.95;10.55;;;;;;;-1.90;87.64;93227.31;5057339;28;20020;-35
2022/12/24 04:04:32;;;;;;;51.30;10.27;;;;;;;-1.98;88.57;93237.03;5083827;28;20028;-35
2022/12/24 04:06:58;;;;;;;38.13;10.50;;;;;;;-2.00;89.14;93238.72;5082228;28;20492;-36
2022/12/24 04:09:23;;;;;;;42.50;10.52;;;;;;;-2.02;89.09;93236.50;5075293;28;20020;-35
2022/12/24 04:11:49;;;;;;;61.40;10.82;;;;;;;-2.00;89.14;93236.78;5087906;28;20024;-35
2022/12/24 04:14:14;;;;;;;38.45;9.93;;;;;;;-1.96;89.18;93245.44;5081833;28;20050;-35
2022/12/24 04:16:39;;;;;;;23.77;9.30;;;;;;;-1.96;88.87;93245.44;5078289;28;20040;-35
2022/12/24 04:19:05;;;;;;;28.70;11.68;;;;;;;-1.90;88.76;93248.94;5076978;28;20055;-36
2022/12/24 04:21:30;;;;;;;32.28;10.60;;;;;;;-1.89;88.61;93247.00;5080265;28;20027;-36
2022/12/24 04:23:56;;;;;;;27.42;9.75;;;;;;;-1.93;89.05;93244.50;5083226;28;20491;-35
2022/12/24 04:26:21;;;;;;;59.90;13.32;;;;;;;-1.80;89.09;93247.56;5085540;28;20028;-35
2022/12/24 04:28:47;;;;;;;70.38;12.23;;;;;;;-1.78;88.63;93245.16;5079868;28;20028;-35
2022/12/24 04:31:14;;;;;;;62.47;14.82;;;;;;;-1.83;88.81;93243.13;5080271;28;20021;-35
2022/12/24 04:33:39;;;;;;;50.88;12.05;;;;;;;-1.72;88.81;93250.63;5083090;28;20492;-35
2022/12/24 04:36:06;;;;;;;59.47;12.05;;;;;;;-1.65;89.15;93253.69;5082311;28;20031;-35
2022/12/24 04:38:32;;;;;;;34.10;9.63;;;;;;;-1.62;88.58;93252.72;5083750;28;20073;-35
2022/12/24 04:41:06;;;;;;;53.72;12.02;;;;;;;-1.71;88.86;93250.16;5078475;28;20028;-35
2022/12/24 04:43:32;;;;;;;38.70;11.73;;;;;;;-1.72;88.53;93254.09;5083086;28;20027;-35
2022/12/24 04:46:08;;;;;;;59.28;12.18;;;;;;;-1.66;88.54;93263.00;5079472;28;20034;-35
2022/12/24 04:48:34;;;;;;;55.28;12.43;;;;;;;-1.62;88.49;93257.38;5081337;28;20056;-35
2022/12/24 04:51:02;;;;;;;59.35;16.48;;;;;;;-1.63;88.26;93247.78;5076454;28;20055;-35
2022/12/24 04:53:27;;;;;;;76.70;13.88;;;;;;;-1.52;87.99;93255.28;5084768;28;20020;-36
2022/12/24 04:55:52;;;;;;;55.08;13.50;;;;;;;-1.62;88.10;93271.66;5061994;28;20489;-35
2022/12/24 04:58:18;;;;;;;41.92;13.63;;;;;;;-1.70;88.17;93267.13;5081417;28;20040;-36
2022/12/24 05:00:43;;;;;;;44.90;13.65;;;;;;;-1.71;88.57;93260.25;5078610;28;20036;-36
2022/12/24 05:03:09;;;;;;;42.53;13.88;;;;;;;-1.68;88.59;93265.44;5083201;28;20020;-36
2022/12/24 05:05:34;;;;;;;39.78;15.50;;;;;;;-1.76;88.72;93267.09;5087995;28;20764;-36
2022/12/24 05:07:59;;;;;;;73.25;22.25;;;;;;;-1.72;88.73;93264.91;5075675;28;20016;-36
2022/12/24 05:10:25;;;;;;;72.43;24.42;;;;;;;-1.71;88.78;93266.38;5082686;28;20020;-36
2022/12/24 05:12:50;;;;;;;73.45;23.90;;;;;;;-1.80;89.06;93268.50;5084420;28;20028;-36
2022/12/24 05:15:16;;;;;;;47.33;18.25;;;;;;;-1.75;88.64;93275.94;5079469;28;20021;-35
2022/12/24 05:17:41;;;;;;;50.38;18.23;;;;;;;-1.84;88.43;93273.38;5090886;28;20028;-35
2022/12/24 05:20:07;;;;;;;42.95;14.05;;;;;;;-1.87;88.64;93266.94;5087338;28;20472;-35
2022/12/24 05:28:00;;;;;;;45.25;13.65;;;;;;;-1.75;88.73;93260.44;5086798;28;20039;-35
2022/12/24 05:30:26;;;;;;;45.60;13.45;;;;;;;-1.73;88.67;93268.81;5067491;28;20020;-35
2022/12/24 05:32:51;;;;;;;39.05;14.70;;;;;;;-2.02;89.05;93230.34;5085553;28;20397;-36
2022/12/24 05:35:17;;;;;;;50.45;12.85;;;;;;;-1.64;89.43;93273.34;5086413;28;20024;-35
2022/12/24 05:37:42;;;;;;;45.28;15.85;;;;;;;-1.71;88.85;93269.09;5063177;28;20040;-35
2022/12/24 05:40:08;;;;;;;40.97;14.48;;;;;;;-1.69;88.72;93263.94;5084234;28;20028;-35
2022/12/24 05:42:33;;;;;;;72.88;17.23;;;;;;;-1.72;89.14;93275.00;5078939;28;20028;-35
2022/12/24 05:44:59;;;;;;;56.42;15.23;;;;;;;-1.66;89.21;93260.31;5079307;28;20032;-34
2022/12/24 05:47:25;;;;;;;87.05;29.40;;;;;;;-1.63;89.18;93255.91;5080094;28;20016;-34
2022/12/24 05:49:50;;;;;;;115.35;31.13;;;;;;;-1.60;88.42;93244.88;5078382;28;20024;-34
2022/12/24 05:52:16;;;;;;;95.88;25.48;;;;;;;-1.49;88.05;93246.22;5082020;28;20512;-34
2022/12/24 05:54:41;;;;;;;93.13;21.58;;;;;;;-1.50;87.97;93255.56;5084958;28;20039;-35
2022/12/24 05:57:07;;;;;;;85.47;22.50;;;;;;;-1.58;88.60;93250.53;5082796;28;20087;-35
2022/12/24 05:59:32;;;;;;;68.75;23.73;;;;;;;-1.59;88.93;93253.75;5067251;28;20044;-35
2022/12/24 06:01:58;;;;;;;88.60;19.35;;;;;;;-1.57;89.24;93259.41;5084683;28;20112;-35
2022/12/24 06:04:23;;;;;;;90.50;17.58;;;;;;;-1.45;89.17;93271.84;5087309;28;20016;-36
2022/12/24 06:06:49;;;;;;;62.53;18.23;;;;;;;-1.38;88.51;93265.28;5079343;28;20031;-35
2022/12/24 06:09:14;;;;;;;75.18;20.88;;;;;;;-1.39;88.24;93264.53;5084994;28;20035;-35
2022/12/24 06:11:39;;;;;;;91.72;22.15;;;;;;;-1.64;88.95;93276.81;5077865;28;20020;-35
2022/12/24 06:14:05;;;;;;;151.05;39.50;;;;;;;-1.57;89.31;93276.41;5082093;28;20047;-36
2022/12/24 06:16:30;;;;;;;76.78;21.13;;;;;;;-1.44;89.88;93275.31;5083627;28;20032;-35
2022/12/24 06:18:56;;;;;;;49.55;16.98;;;;;;;-1.39;89.34;93274.63;5084159;28;20020;-35
2022/12/24 06:21:21;;;;;;;61.58;16.63;;;;;;;-1.67;89.07;93261.50;5083158;28;20016;-35
2022/12/24 06:23:47;;;;;;;92.60;25.10;;;;;;;-1.49;88.62;93255.06;5085913;28;20028;-35
2022/12/24 06:26:18;;;;;;;68.15;28.33;;;;;;;-1.37;88.60;93258.66;5081543;28;20118;-35
2022/12/24 06:28:44;;;;;;;58.35;24.80;;;;;;;-1.24;89.04;93253.63;5080792;28;20539;-35
2022/12/24 06:31:12;;;;;;;48.63;22.83;;;;;;;-1.10;89.12;93244.63;5078312;28;20035;-36
2022/12/24 06:33:37;;;;;;;56.60;26.17;;;;;;;-0.99;89.12;93244.72;5075578;28;20024;-36
2022/12/24 06:36:07;;;;;;;73.07;41.35;;;;;;;-0.83;88.58;93254.97;5083462;28;21298;-36
2022/12/24 06:38:33;;;;;;;53.25;29.13;;;;;;;-0.75;88.45;93250.59;5075531;28;20115;-36
2022/12/24 06:40:58;;;;;;;92.43;39.67;;;;;;;-0.74;88.00;93254.06;5077105;28;20116;-36
2022/12/24 06:43:24;;;;;;;77.20;36.13;;;;;;;-0.50;86.69;93254.50;5079454;28;20526;-35
2022/12/24 06:45:50;;;;;;;70.93;32.28;;;;;;;-0.38;85.88;93266.91;5080073;28;20028;-34
2022/12/24 06:48:15;;;;;;;63.97;30.67;;;;;;;-0.41;85.51;93251.59;5064962;28;20122;-35
2022/12/24 06:50:41;;;;;;;75.20;34.15;;;;;;;-0.24;85.46;93272.16;5079131;28;20079;-35
2022/12/24 06:53:07;;;;;;;68.57;32.03;;;;;;;-0.15;84.49;93277.41;5075761;28;20807;-36
2022/12/24 06:55:32;;;;;;;65.55;32.83;;;;;;;-0.01;83.95;93283.91;5075231;28;20032;-36
2022/12/24 06:57:58;;;;;;;65.88;29.65;;;;;;;-0.01;83.35;93287.38;5075701;28;20036;-35
2022/12/24 07:00:23;;;;;;;45.42;23.17;;;;;;;-0.13;83.29;93287.78;5074181;28;20044;-36
2022/12/24 07:02:49;;;;;;;47.42;24.58;;;;;;;-0.03;82.38;93300.69;5075194;28;20484;-35
2022/12/24 07:05:15;;;;;;;37.80;20.55;;;;;;;-0.12;82.73;93298.16;5075991;28;20040;-35
2022/12/24 07:07:42;;;;;;;47.13;21.88;;;;;;;-0.40;83.28;93299.94;5076460;28;20024;-34
2022/12/24 07:10:10;;;;;;;36.78;16.85;;;;;;;-0.33;83.81;93298.75;5073622;28;20027;-34
2022/12/24 07:12:36;;;;;;;30.42;17.52;;;;;;;-0.23;84.16;93291.91;5076966;28;20035;-35
2022/12/24 07:15:01;;;;;;;29.67;16.48;;;;;;;-0.15;83.59;93287.50;5078639;28;20053;-35
2022/12/24 07:17:27;;;;;;;33.00;17.02;;;;;;;-0.12;84.34;93295.44;5074912;28;20027;-35
2022/12/24 07:19:52;;;;;;;34.03;19.40;;;;;;;-0.01;84.76;93295.53;5058146;28;20063;-34
2022/12/24 07:22:18;;;;;;;46.08;23.42;;;;;;;0.09;84.94;93298.03;5055524;28;20027;-35
2022/12/24 07:24:43;;;;;;;50.08;24.67;;;;;;;0.16;84.37;93295.59;5074967;28;20487;-35
2022/12/24 07:27:09;;;;;;;45.97;21.52;;;;;;;0.36;84.86;93292.00;5074185;28;20020;-35
2022/12/24 07:29:34;;;;;;;38.88;21.00;;;;;;;0.62;84.72;93285.22;5077250;28;20020;-35
2022/12/24 07:32:00;;;;;;;30.25;17.67;;;;;;;0.90;83.86;93298.88;5074802;28;20022;-34
2022/12/24 07:34:26;;;;;;;29.02;15.55;;;;;;;1.09;83.63;93299.16;5075139;28;20393;-35
2022/12/24 07:36:51;;;;;;;28.23;16.48;;;;;;;1.30;82.84;93293.00;5082904;28;20415;-35
2022/12/24 07:39:16;;;;;;;32.40;17.63;;;;;;;1.57;81.92;93305.16;5079694;28;20119;-35
2022/12/24 07:41:42;;;;;;;23.92;14.10;;;;;;;1.90;81.25;93297.00;5083007;28;20035;-35
2022/12/24 07:44:12;;;;;;;19.70;10.95;;;;;;;2.22;79.46;93302.88;5079810;28;20025;-35
2022/12/24 07:46:37;;;;;;;19.45;11.32;;;;;;;2.54;77.44;93300.56;5076900;28;20420;-35
2022/12/24 07:49:03;;;;;;;21.98;11.70;;;;;;;2.78;76.13;93296.03;5076973;28;20032;-35
2022/12/24 07:51:28;;;;;;;25.95;13.60;;;;;;;3.01;75.05;93296.69;5072673;28;20012;-35
2022/12/24 07:53:54;;;;;;;28.35;14.55;;;;;;;3.24;74.64;93284.38;5075130;28;20168;-36
2022/12/24 07:56:19;;;;;;;32.42;13.30;;;;;;;3.53;72.44;93302.06;5077171;28;20028;-36
2022/12/24 07:58:45;;;;;;;29.95;14.55;;;;;;;3.31;72.98;93307.66;5079665;28;20028;-36
2022/12/24 08:01:11;;;;;;;33.60;13.55;;;;;;;3.11;73.85;93308.75;5077152;28;20052;-37
2022/12/24 08:03:36;;;;;;;32.40;13.13;;;;;;;3.44;75.45;93313.28;5077184;28;20492;-36
2022/12/24 08:06:02;;;;;;;24.52;11.57;;;;;;;3.64;73.78;93312.88;5077372;28;20021;-36
2022/12/24 08:08:28;;;;;;;46.80;12.20;;;;;;;3.60;73.62;93321.38;5073372;28;20440;-36
2022/12/24 08:10:53;;;;;;;51.65;13.27;;;;;;;3.40;73.90;93327.19;5074879;28;20727;-36
2022/12/24 08:13:19;;;;;;;63.30;13.95;;;;;;;3.31;75.16;93334.94;5075569;28;20042;-36
2022/12/24 08:15:44;;;;;;;36.65;12.13;;;;;;;3.21;75.51;93309.19;5080348;28;20032;-36
2022/12/24 08:18:10;;;;;;;59.63;17.05;;;;;;;3.42;76.16;93332.88;5080495;28;20023;-36
2022/12/24 08:20:39;;;;;;;106.30;15.00;;;;;;;3.48;76.66;93338.31;5076774;28;20024;-36
2022/12/24 08:23:05;;;;;;;;;;;;;;;3.52;76.71;93341.50;5074712;28;20055;-36
2022/12/24 08:25:30;;;;;;;61.00;15.88;;;;;;;3.58;77.72;93339.50;5075759;28;19951;-36
2022/12/24 08:27:56;;;;;;;139.88;20.58;;;;;;;3.59;78.02;93330.81;5079898;28;20024;-36
2022/12/24 08:30:22;;;;;;;138.57;18.65;;;;;;;3.79;77.95;93332.38;5080988;28;20575;-36
2022/12/24 08:32:47;;;;;;;100.60;15.40;;;;;;;3.91;77.10;93327.59;5084728;28;20030;-36
2022/12/24 08:35:13;;;;;;;126.18;17.77;;;;;;;4.14;77.09;93337.81;5060240;28;20586;-36
2022/12/24 08:37:38;;;;;;;122.30;15.85;;;;;;;4.41;76.71;93325.91;5073240;28;20032;-35
2022/12/24 08:40:04;;;;;;;68.80;13.60;;;;;;;4.97;76.42;93320.59;5072022;28;20169;-36
2022/12/24 08:42:30;;;;;;;73.47;12.68;;;;;;;5.79;73.78;93323.47;5072249;28;20027;-37
2022/12/24 08:44:55;;;;;;;66.60;14.82;;;;;;;6.52;70.31;93315.56;5073474;28;20032;-36
2022/12/24 08:47:21;;;;;;;42.08;15.43;;;;;;;7.36;68.16;93320.91;5072034;28;20024;-36
2022/12/24 08:49:46;;;;;;;53.08;17.98;;;;;;;7.60;65.07;93314.44;5072806;28;20028;-36
2022/12/24 08:52:12;;;;;;;48.60;16.73;;;;;;;7.55;65.39;93312.53;5073981;28;20024;-36
2022/12/24 08:54:37;;;;;;;61.42;17.55;;;;;;;7.45;65.90;93314.28;5074720;28;20028;-36
2022/12/24 08:57:02;;;;;;;41.13;15.40;;;;;;;7.49;66.01;93315.41;5072553;28;20059;-36
2022/12/24 08:59:28;;;;;;;27.95;14.15;;;;;;;7.46;65.77;93297.25;5071062;28;20025;-36
2022/12/24 09:01:55;;;;;;;32.28;14.75;;;;;;;7.35;65.93;93307.72;5076803;28;20501;-36
2022/12/24 09:04:20;;;;;;;34.72;15.88;;;;;;;7.13;65.98;93308.16;5076751;28;20038;-35
2022/12/24 09:06:45;;;;;;;32.25;14.65;;;;;;;6.95;66.65;93317.28;5074256;28;20036;-36
2022/12/24 09:09:11;;;;;;;35.83;16.20;;;;;;;6.74;67.36;93317.16;5075502;28;20771;-36
2022/12/24 09:11:36;;;;;;;47.00;19.50;;;;;;;6.51;68.03;93314.09;5077293;28;20024;-36
2022/12/24 09:14:02;;;;;;;42.88;19.88;;;;;;;6.00;69.80;93307.97;5083921;28;20035;-36
2022/12/24 09:16:28;;;;;;;31.95;18.02;;;;;;;5.48;72.25;93301.53;5076483;28;20424;-36
2022/12/24 09:18:53;;;;;;;62.42;34.72;;;;;;;5.12;74.76;93299.00;5073536;28;20504;-37
2022/12/24 09:21:19;;;;;;;76.18;35.30;;;;;;;5.04;75.84;93291.91;5074666;28;20033;-39
2022/12/24 09:23:46;;;;;;;47.58;25.38;;;;;;;4.80;77.87;93281.75;5052838;28;20066;-36
2022/12/24 09:26:16;;;;;;;40.88;21.67;;;;;;;4.59;79.70;93273.28;5072741;28;20028;-36
2022/12/24 09:28:42;;;;;;;42.30;22.45;;;;;;;4.65;80.40;93267.00;5074794;28;20571;-36
2022/12/24 09:31:09;;;;;;;36.05;18.90;;;;;;;4.75;80.50;93270.84;5073278;28;20028;-36
2022/12/24 09:33:36;;;;;;;33.40;19.98;;;;;;;4.82;80.39;93276.50;5070278;28;20028;-36
2022/12/24 09:36:02;;;;;;;42.40;20.38;;;;;;;4.91;79.99;93286.34;5067942;28;20039;-36
2022/12/24 09:38:29;;;;;;;34.67;18.02;;;;;;;4.92;80.21;93288.56;5069547;28;20633;-36
2022/12/24 09:40:55;;;;;;;49.88;25.10;;;;;;;4.91;79.96;93284.34;5067585;28;20028;-36
2022/12/24 09:43:31;;;;;;;44.65;25.38;;;;;;;4.95;79.83;93289.53;5068512;28;20065;-36
2022/12/24 09:46:02;;;;;;;51.10;25.92;;;;;;;5.05;79.49;93288.63;5052579;28;20024;-36
2022/12/24 09:48:29;;;;;;;37.83;21.95;;;;;;;5.09;79.24;93300.03;5070672;28;20090;-53
2022/12/24 09:51:08;;;;;;;37.88;23.45;;;;;;;5.01;79.34;93279.25;5071427;28;20052;-39
2022/12/24 09:54:14;;;;;;;93.18;44.67;;;;;;;5.20;79.99;93280.72;5072995;28;20123;-38
2022/12/24 09:56:43;;;;;;;108.93;53.63;;;;;;;5.25;80.12;93290.13;5069868;28;20035;-38
2022/12/24 10:01:52;;;;;;;113.05;56.42;;;;;;;5.28;80.71;93281.59;1496222;26;20092;-71
2022/12/24 10:04:20;;;;;;;100.65;46.83;;;;;;;5.16;81.08;93265.84;5093544;28;20028;-79
2022/12/24 10:06:59;;;;;;;153.85;75.75;;;;;;;5.22;81.04;93282.94;5095146;28;20056;-73
2022/12/24 10:09:27;;;;;;;;;;;;;;;5.21;82.03;93311.59;5094422;28;20031;-73
2022/12/24 10:11:59;;;;;;;131.45;61.25;;;;;;;5.14;82.60;93307.44;5095633;28;20345;-72
2022/12/24 10:14:36;;;;;;;92.28;46.80;;;;;;;5.11;83.51;93291.31;5090835;28;20039;-72
2022/12/24 10:17:27;;;;;;;34.28;20.85;;;;;;;5.24;83.72;93285.91;5107873;28;20415;-72
2022/12/24 10:20:21;;;;;;;24.70;16.50;;;;;;;5.20;83.86;93282.72;5099826;28;20028;-75
2022/12/24 10:22:46;;;;;;;31.50;19.55;;;;;;;5.34;84.28;93287.75;5098759;28;20032;-75
2022/12/24 10:25:29;;;;;;;32.38;18.75;;;;;;;5.49;84.09;93295.53;5096565;28;20736;-74
2022/12/24 10:27:57;;;;;;;28.88;18.52;;;;;;;5.70;83.40;93296.44;5081078;28;20039;-76
2022/12/24 10:30:23;;;;;;;34.33;22.13;;;;;;;5.81;82.92;93285.31;5092474;28;20089;-77
2022/12/24 10:32:51;;;;;;;39.75;20.00;;;;;;;6.16;82.15;93292.50;5093361;28;20119;-74
2022/12/24 10:35:26;;;;;;;30.15;17.33;;;;;;;6.31;80.84;93290.00;5093961;28;20050;-74
2022/12/24 10:37:52;;;;;;;30.83;20.23;;;;;;;6.36;80.14;93269.25;5094614;28;20028;-74
2022/12/24 10:40:27;;;;;;;42.45;28.08;;;;;;;6.46;79.21;93278.53;5097654;28;20034;-74
2022/12/24 10:42:52;;;;;;;60.47;35.65;;;;;;;6.34;78.64;93252.59;5094893;28;20051;-74
2022/12/24 10:45:23;;;;;;;62.25;38.58;;;;;;;6.44;78.89;93250.91;5092429;28;20434;-74
2022/12/24 10:47:54;;;;;;;53.22;33.42;;;;;;;6.83;79.00;93259.88;5076246;28;20024;-74
2022/12/24 10:50:40;;;;;;;45.22;28.70;;;;;;;7.07;77.59;93238.94;5080250;28;20038;-74
2022/12/24 10:53:14;;;;;;;47.30;30.40;;;;;;;7.46;76.60;93241.56;5081747;28;20029;-70
2022/12/24 10:55:39;;;;;;;43.53;27.13;;;;;;;7.62;75.43;93232.94;5094253;28;20114;-72
2022/12/24 10:58:11;;;;;;;32.03;22.33;;;;;;;7.99;74.28;93247.59;5094585;28;20060;-74
2022/12/24 11:00:37;;;;;;;24.45;17.33;;;;;;;8.21;72.20;93245.00;5078278;28;20032;-71
2022/12/24 11:03:21;;;;;;;28.48;18.70;;;;;;;8.50;70.30;93245.81;5094251;28;20458;-72
2022/12/24 11:05:59;;;;;;;34.45;20.48;;;;;;;8.65;69.09;93240.41;5087999;28;20067;-75
2022/12/24 11:08:25;;;;;;;35.75;21.63;;;;;;;8.72;68.65;93242.47;5079983;28;20138;-73
2022/12/24 11:11:12;;;;;;;34.95;22.08;;;;;;;8.82;67.66;93235.19;5078884;28;20119;-75
2022/12/24 11:13:44;;;;;;;32.08;19.60;;;;;;;8.73;67.81;93246.69;5078982;28;20512;-74
2022/12/24 11:16:28;;;;;;;28.00;18.05;;;;;;;8.30;69.25;93244.56;5063360;28;20089;-74
2022/12/24 11:20:23;;;;;;;27.40;16.45;;;;;;;7.81;70.58;93204.53;5072414;27;20129;-43
2022/12/24 11:22:49;;;;;;;25.00;16.05;;;;;;;7.89;70.77;93239.06;5062309;28;20047;-46
2022/12/24 11:25:21;;;;;;;47.55;25.75;;;;;;;7.77;71.44;93242.63;5059486;28;20025;-41
2022/12/24 11:27:50;;;;;;;44.78;27.73;;;;;;;7.90;71.83;93248.06;5063986;28;20035;-45
2022/12/24 11:30:22;;;;;;;24.95;17.75;;;;;;;8.08;72.34;93250.59;5066109;28;20119;-42
2022/12/24 11:32:50;;;;;;;23.65;15.02;;;;;;;8.24;71.72;93257.69;5063877;28;20040;-42
2022/12/24 11:35:23;;;;;;;26.20;15.30;;;;;;;8.22;71.16;93257.50;5068557;28;20028;-42
2022/12/24 11:38:08;;;;;;;23.42;14.27;;;;;;;8.21;71.59;93258.03;5062866;28;20030;-41
2022/12/24 11:40:36;;;;;;;16.95;11.95;;;;;;;8.19;70.63;93250.31;5039295;28;20033;-43